AirNav   Everest Fuels
 
 828 users online  

1MA1 Nashoba Valley Medical Center Heliport
Ayer, Massachusetts, USA

GOING TO AYER?


FAA INFORMATION EFFECTIVE 10 SEPTEMBER 2020

Location

FAA Identifier: 1MA1
Lat/Long: 42-34-35.4700N 071-34-25.8800W
42-34.591167N 071-34.431333W
42.5765194,-71.5738556
(estimated)
Elevation: 308 ft. / 94 m (estimated)
Variation: 16W (1985)
Time zone: UTC -4 (UTC -5 during Standard Time)
Zip code: 01432

Heliport Operations

Heliport use: Private use, MEDICAL USE.
Activation date: 09/1983
Control tower: no
ARTCC: BOSTON CENTER
FSS: BRIDGEPORT FLIGHT SERVICE STATION
Attendance: CONTINUOUS
Wind indicator: yes
Segmented circle: no
Lights: FOR PERIMETER LGTS CALL 978-784-9000.

Heliport Communications

WX ASOS at FIT (8 nm W): 135.175 (978-343-9121)
WX AWOS-3PT at ASH (13 nm N): 125.1 (603-578-0473)
WX ASOS at BED (14 nm SE): 124.6 (781-274-9733)

Nearby radio navigation aids

VOR radial/distance  VOR name  Freq  Var
MHTr222/19.7MANCHESTER VOR/DME114.4015W
GDMr099/21.5GARDNER VOR/DME110.6014W
LWMr260/23.3LAWRENCE VOR/DME112.5015W
BOSr313/29.0BOSTON VOR/DME112.7016W
EENr126/34.3KEENE VORTAC109.4014W
CONr195/38.6CONCORD VOR/DME112.9015W
PUTr032/39.1PUTNAM VOR/DME117.4014W

Heliport Services

Runway Information

Helipad H1

Dimensions: 40 x 40 ft. / 12 x 12 m
Surface: concrete
Runway edge lights: PERI
Latitude: 42-34.591167N
Longitude: 071-34.431333W
Elevation: 308.0 ft.
Traffic pattern: leftleft
Obstructions: 20 ft. bldg, marked and lighted, 140 ft. from runway
PLINES MKD 500 FT FM PAD.

Heliport Ownership and Management from official FAA records

Ownership: Privately-owned
Owner: NASHOBA VALLEY MEDICAL CENTER
200 GROTON ROAD
AYER, MA 01432
Phone (978) 784-9201
Manager: SALVATOR PERLA
200 GROTON ROAD
AYER, MA 01432
Phone (978) 784-9201
SUSAN LIGHTFOOT

Additional Remarks

FOR CD CTC BOSTON APCH AT 603-594-5554.

Instrument Procedures

There are no published instrument procedures at 1MA1.

Some nearby airports with instrument procedures:

6B6 - Minute Man Air Field (7 nm S)
KFIT - Fitchburg Municipal Airport (8 nm W)
KASH - Boire Field Airport (13 nm N)
KBED - Laurence G Hanscom Field Airport (14 nm SE)
KGDM - Gardner Municipal Airport (20 nm W)
 
Loc | Ops | Rwys | IFR | FBO | Links
Com | Nav | Svcs | Stats | Notes
Area around 1MA1 (Nashoba Valley Medical Center Heliport)
 
Road maps at: MapQuest Bing Google
 
Aerial photo
No photo
 
Sectional chart

 
Airport distance calculator
Flying to Nashoba Valley Medical Center Heliport? Find the distance to fly.

From to 1MA1

Sunrise and sunset
Times for 22-Sep-2020
 Local
(UTC-4)
 Zulu
(UTC)
Morning civil twilight06:0810:08
Sunrise06:3610:36
Sunset18:4222:42
Evening civil twilight19:1023:10

Current date and time
Zulu (UTC)  22-Sep-2020 04:12:15
Local (UTC-4)  22-Sep-2020 00:12:15
 
METAR
KFIT 
8nm W 
220352Z AUTO 33003KT 10SM CLR 04/00 A3039 RMK AO2 SLP292 T00390000
KASH 
12nm N 
220356Z AUTO 30004KT 10SM CLR 03/02 A3038 RMK AO2 SLP295 T00330017
KBED 
14nm SE 
220351Z AUTO 00000KT 10SM CLR 03/01 A3037 RMK AO2 SLP297 T00280006
TAF
KBED 
14nm SE 
211730Z 2118/2218 05012KT P6SM SKC FM212200 06006KT P6SM SKC FM220000 VRB03KT P6SM SKC FM221400 36013G23KT P6SM SCT250
NOTAMs
Click for the latest NOTAMs
NOTAMs are issued by the DoD/FAA and will open in a separate window not controlled by AirNav.

 

 
 

Would you like to see your business listed on this page?

 If your business provides an interesting product or service to pilots, flight crews, aircraft, or users of the Nashoba Valley Medical Center Heliport, you should consider listing it here.  To start the listing process, click on the button below
 
Add a business
 

Other Pages about Nashoba Valley Medical Center Heliport

Update a link
 
Copyright © AirNav, LLC. All rights reserved. Privacy Policy  Contact